Cecilia, LA (70521)

5:55 AM CST on March 04, 2015 (GMT -0600)
Pecaniere | Change Station
CLOSE
Current Station
Personal Weather Station
Location: Arnaudville, LA
Elevation: 30 ft
Nearby Weather Stations
Active Advisory: Dense Fog Advisory

Elev 30 ft 30.43 °N, 91.92 °W | Updated 3 minutes ago

Overcast
Overcast
66.4 °F
Feels Like 66.4 °F
N
1.7
Wind Variable Wind from SE

Today
High -- | Low -- °F
--% Chance of Precip.
Yesterday
High -- | Low -- °F
Precip. -- in
6:30 AM 6:08 PM
Waxing Gibbous, 99% visible
Pressure 29.93 in
Visibility 3.0 miles
Clouds Overcast 300 ft
Dew Point 66 °F
Humidity 99%
Rainfall 0.00 in
Snow Depth Not available.
UV 0 out of 12
Pollen 9.90 out of 12
Air Quality Not available.
Flu Activity Not available.
METAR KLFT 041053Z 15004KT 3SM BR OVC003 19/18 A2993 RMK AO2 SLP134 T01890183

More Conditions Fewer Conditions

Pressure 29.93 in
Visibility 3.0 miles
Clouds Overcast 300 ft
Dew Point 66 °F
Humidity 99%
Rainfall 0.00 in
Snow Depth Not available.
UV 0 out of 12
Pollen 9.90 out of 12
Air Quality Not available.
Flu Activity Not available.
METAR KLFT 041053Z 15004KT 3SM BR OVC003 19/18 A2993 RMK AO2 SLP134 T01890183

More Conditions Fewer Conditions

10-Day Weather Forecast

Almanac

Astronomy

Mar. 04, 2015 Rise Set
Actual Time
Civil Twilight
Nautical Twilight
Astronomical Twilight
Moon
Length of Visible Light
Length of Day
Tomorrow will be .
, % of the Moon is Illuminated

Today's Extremes

State Highs State Lows

Community

WunderPhotos

Upload Photos

1,802,435 photos uploaded!

WunderBlogs® & News

Nearby

Air Quality

  Air Quality AQ Index Pollutant
Not available.

Snow Depth

Station Depth Elevation

Earthquake Activity

City Distance Mag. Time & Date
Minimum magnitude displayed is 2.5.

Coastal Water Temperatures

Place Temperature

Nearby Weather Stations

Dense Fog Advisory
Statement as of 8:21 PM CST on March 03, 2015

... Dense fog advisory remains in effect until 10 am CST
Wednesday...

* visibility... one quarter of a mile or less at times.

* Impacts... reduced visibility making for hazardous driving
conditions... especially when visibility change quickly over a
short distance.

Precautionary/preparedness actions...

A dense fog advisory means visibility will frequently be reduced
to less than one quarter mile. If driving... slow down... use your
headlights... and leave plenty of distance ahead of you.